sensor_id;sensor_type;location;lat;lon;timestamp;P1;durP1;ratioP1;P2;durP2;ratioP2
60873;SDS011;46715;40.642;-7.920;2023-07-28T00:01:47;8.57;;;4.17;;
60873;SDS011;46715;40.642;-7.920;2023-07-28T00:03:48;5.13;;;3.70;;
60873;SDS011;46715;40.642;-7.920;2023-07-28T00:05:48;6.57;;;4.10;;
60873;SDS011;46715;40.642;-7.920;2023-07-28T00:07:49;6.30;;;4.07;;
60873;SDS011;46715;40.642;-7.920;2023-07-28T00:09:50;7.90;;;3.70;;
60873;SDS011;46715;40.642;-7.920;2023-07-28T00:11:50;5.60;;;3.30;;
60873;SDS011;46715;40.642;-7.920;2023-07-28T00:13:51;6.90;;;3.70;;
60873;SDS011;46715;40.642;-7.920;2023-07-28T00:15:52;10.33;;;3.80;;
60873;SDS011;46715;40.642;-7.920;2023-07-28T00:17:52;8.17;;;4.23;;
60873;SDS011;46715;40.642;-7.920;2023-07-28T00:19:53;7.70;;;4.47;;
60873;SDS011;46715;40.642;-7.920;2023-07-28T00:21:53;5.30;;;3.70;;
60873;SDS011;46715;40.642;-7.920;2023-07-28T00:23:56;7.75;;;4.40;;
60873;SDS011;46715;40.642;-7.920;2023-07-28T00:25:56;9.33;;;4.43;;
60873;SDS011;46715;40.642;-7.920;2023-07-28T00:27:57;6.70;;;4.43;;
60873;SDS011;46715;40.642;-7.920;2023-07-28T00:29:58;8.17;;;4.80;;
60873;SDS011;46715;40.642;-7.920;2023-07-28T00:31:59;7.23;;;4.23;;
60873;SDS011;46715;40.642;-7.920;2023-07-28T00:34:00;5.27;;;3.40;;
60873;SDS011;46715;40.642;-7.920;2023-07-28T00:36:04;5.95;;;3.97;;
60873;SDS011;46715;40.642;-7.920;2023-07-28T00:38:06;5.97;;;4.32;;
60873;SDS011;46715;40.642;-7.920;2023-07-28T00:40:07;9.13;;;4.32;;
60873;SDS011;46715;40.642;-7.920;2023-07-28T00:42:08;8.40;;;3.83;;
60873;SDS011;46715;40.642;-7.920;2023-07-28T00:44:10;6.22;;;3.97;;
60873;SDS011;46715;40.642;-7.920;2023-07-28T00:46:10;7.73;;;4.30;;
60873;SDS011;46715;40.642;-7.920;2023-07-28T00:48:15;6.88;;;4.45;;
60873;SDS011;46715;40.642;-7.920;2023-07-28T00:50:17;5.78;;;4.13;;
60873;SDS011;46715;40.642;-7.920;2023-07-28T00:52:18;6.78;;;4.60;;
60873;SDS011;46715;40.642;-7.920;2023-07-28T00:54:22;7.00;;;4.10;;
60873;SDS011;46715;40.642;-7.920;2023-07-28T00:56:23;6.95;;;4.63;;
60873;SDS011;46715;40.642;-7.920;2023-07-28T00:58:25;7.78;;;4.40;;
60873;SDS011;46715;40.642;-7.920;2023-07-28T01:00:26;8.35;;;5.15;;
60873;SDS011;46715;40.642;-7.920;2023-07-28T01:02:27;8.00;;;5.90;;
60873;SDS011;46715;40.642;-7.920;2023-07-28T01:04:28;10.67;;;6.53;;
60873;SDS011;46715;40.642;-7.920;2023-07-28T01:06:44;10.33;;;7.23;;
60873;SDS011;46715;40.642;-7.920;2023-07-28T01:09:03;10.95;;;6.93;;
60873;SDS011;46715;40.642;-7.920;2023-07-28T01:11:09;11.15;;;7.28;;
60873;SDS011;46715;40.642;-7.920;2023-07-28T01:13:10;11.43;;;7.90;;
60873;SDS011;46715;40.642;-7.920;2023-07-28T01:15:11;11.40;;;8.40;;
60873;SDS011;46715;40.642;-7.920;2023-07-28T01:17:12;15.90;;;8.77;;
60873;SDS011;46715;40.642;-7.920;2023-07-28T01:19:12;14.70;;;8.60;;
60873;SDS011;46715;40.642;-7.920;2023-07-28T01:21:22;11.00;;;7.57;;
60873;SDS011;46715;40.642;-7.920;2023-07-28T01:23:41;12.18;;;8.00;;
60873;SDS011;46715;40.642;-7.920;2023-07-28T01:28:12;10.75;;;7.78;;
60873;SDS011;46715;40.642;-7.920;2023-07-28T01:30:14;12.48;;;8.35;;
60873;SDS011;46715;40.642;-7.920;2023-07-28T01:32:15;11.48;;;8.43;;
60873;SDS011;46715;40.642;-7.920;2023-07-28T01:34:15;10.17;;;8.10;;
60873;SDS011;46715;40.642;-7.920;2023-07-28T01:36:16;9.03;;;7.60;;
60873;SDS011;46715;40.642;-7.920;2023-07-28T01:38:17;9.97;;;7.93;;
60873;SDS011;46715;40.642;-7.920;2023-07-28T01:40:18;10.47;;;7.97;;
60873;SDS011;46715;40.642;-7.920;2023-07-28T01:42:19;15.57;;;8.80;;
60873;SDS011;46715;40.642;-7.920;2023-07-28T01:44:19;10.03;;;8.43;;
60873;SDS011;46715;40.642;-7.920;2023-07-28T01:46:21;10.60;;;7.70;;
60873;SDS011;46715;40.642;-7.920;2023-07-28T01:48:22;11.48;;;7.22;;
60873;SDS011;46715;40.642;-7.920;2023-07-28T01:50:23;9.07;;;6.93;;
60873;SDS011;46715;40.642;-7.920;2023-07-28T01:52:23;12.90;;;7.30;;
60873;SDS011;46715;40.642;-7.920;2023-07-28T01:54:24;9.57;;;7.17;;
60873;SDS011;46715;40.642;-7.920;2023-07-28T01:56:24;8.97;;;7.23;;
60873;SDS011;46715;40.642;-7.920;2023-07-28T01:58:25;10.83;;;8.60;;
60873;SDS011;46715;40.642;-7.920;2023-07-28T02:00:26;11.97;;;7.87;;
60873;SDS011;46715;40.642;-7.920;2023-07-28T02:02:27;12.02;;;6.80;;
60873;SDS011;46715;40.642;-7.920;2023-07-28T02:04:29;8.90;;;6.85;;
60873;SDS011;46715;40.642;-7.920;2023-07-28T02:06:29;12.83;;;8.07;;
60873;SDS011;46715;40.642;-7.920;2023-07-28T02:10:32;12.95;;;7.60;;
60873;SDS011;46715;40.642;-7.920;2023-07-28T02:12:32;11.60;;;7.80;;
60873;SDS011;46715;40.642;-7.920;2023-07-28T02:14:33;10.97;;;7.10;;
60873;SDS011;46715;40.642;-7.920;2023-07-28T02:16:34;10.17;;;8.00;;
60873;SDS011;46715;40.642;-7.920;2023-07-28T02:18:34;12.43;;;8.43;;
60873;SDS011;46715;40.642;-7.920;2023-07-28T02:20:35;11.07;;;8.43;;
60873;SDS011;46715;40.642;-7.920;2023-07-28T02:22:36;12.20;;;8.63;;
60873;SDS011;46715;40.642;-7.920;2023-07-28T02:24:37;12.95;;;8.95;;
60873;SDS011;46715;40.642;-7.920;2023-07-28T02:26:37;11.63;;;8.03;;
60873;SDS011;46715;40.642;-7.920;2023-07-28T02:28:38;12.20;;;8.80;;
60873;SDS011;46715;40.642;-7.920;2023-07-28T02:30:39;10.60;;;7.87;;
60873;SDS011;46715;40.642;-7.920;2023-07-28T02:32:40;7.93;;;6.72;;
60873;SDS011;46715;40.642;-7.920;2023-07-28T02:34:41;11.93;;;7.72;;
60873;SDS011;46715;40.642;-7.920;2023-07-28T02:36:41;8.97;;;7.57;;
60873;SDS011;46715;40.642;-7.920;2023-07-28T02:38:42;12.40;;;8.93;;
60873;SDS011;46715;40.642;-7.920;2023-07-28T02:40:43;13.30;;;8.80;;
60873;SDS011;46715;40.642;-7.920;2023-07-28T02:42:44;10.43;;;7.50;;
60873;SDS011;46715;40.642;-7.920;2023-07-28T02:44:44;12.00;;;7.10;;
60873;SDS011;46715;40.642;-7.920;2023-07-28T02:46:45;13.83;;;8.67;;
60873;SDS011;46715;40.642;-7.920;2023-07-28T02:48:46;11.40;;;8.80;;
60873;SDS011;46715;40.642;-7.920;2023-07-28T02:50:47;11.77;;;8.07;;
60873;SDS011;46715;40.642;-7.920;2023-07-28T02:52:48;14.27;;;8.52;;
60873;SDS011;46715;40.642;-7.920;2023-07-28T02:54:49;12.50;;;7.33;;
60873;SDS011;46715;40.642;-7.920;2023-07-28T02:56:50;11.45;;;7.70;;
60873;SDS011;46715;40.642;-7.920;2023-07-28T02:58:51;10.43;;;7.35;;
60873;SDS011;46715;40.642;-7.920;2023-07-28T03:00:52;10.93;;;6.87;;
60873;SDS011;46715;40.642;-7.920;2023-07-28T03:03:00;11.07;;;6.90;;
60873;SDS011;46715;40.642;-7.920;2023-07-28T03:05:00;9.77;;;7.50;;
60873;SDS011;46715;40.642;-7.920;2023-07-28T03:07:21;11.45;;;7.35;;
60873;SDS011;46715;40.642;-7.920;2023-07-28T03:09:28;10.05;;;7.45;;
60873;SDS011;46715;40.642;-7.920;2023-07-28T03:11:36;12.45;;;7.65;;
60873;SDS011;46715;40.642;-7.920;2023-07-28T03:13:37;10.80;;;6.33;;
60873;SDS011;46715;40.642;-7.920;2023-07-28T03:15:37;11.17;;;7.57;;
60873;SDS011;46715;40.642;-7.920;2023-07-28T03:17:39;11.70;;;7.15;;
60873;SDS011;46715;40.642;-7.920;2023-07-28T03:19:40;10.80;;;6.93;;
60873;SDS011;46715;40.642;-7.920;2023-07-28T03:21:41;11.07;;;7.00;;
60873;SDS011;46715;40.642;-7.920;2023-07-28T03:23:41;10.00;;;6.43;;
60873;SDS011;46715;40.642;-7.920;2023-07-28T03:25:42;10.77;;;6.87;;
60873;SDS011;46715;40.642;-7.920;2023-07-28T03:27:43;8.67;;;6.57;;
60873;SDS011;46715;40.642;-7.920;2023-07-28T03:29:44;10.10;;;6.77;;
60873;SDS011;46715;40.642;-7.920;2023-07-28T03:31:45;9.73;;;6.20;;
60873;SDS011;46715;40.642;-7.920;2023-07-28T03:33:46;7.80;;;5.97;;
60873;SDS011;46715;40.642;-7.920;2023-07-28T03:35:47;10.23;;;6.82;;
60873;SDS011;46715;40.642;-7.920;2023-07-28T03:37:48;15.13;;;6.73;;
60873;SDS011;46715;40.642;-7.920;2023-07-28T03:39:49;10.00;;;7.03;;
60873;SDS011;46715;40.642;-7.920;2023-07-28T03:41:49;9.07;;;6.50;;
60873;SDS011;46715;40.642;-7.920;2023-07-28T03:43:50;8.10;;;5.53;;
60873;SDS011;46715;40.642;-7.920;2023-07-28T03:45:51;12.43;;;6.87;;
60873;SDS011;46715;40.642;-7.920;2023-07-28T03:47:52;10.65;;;7.25;;
60873;SDS011;46715;40.642;-7.920;2023-07-28T03:49:52;8.87;;;6.37;;
60873;SDS011;46715;40.642;-7.920;2023-07-28T03:51:53;8.90;;;6.67;;
60873;SDS011;46715;40.642;-7.920;2023-07-28T03:53:54;9.17;;;7.23;;
60873;SDS011;46715;40.642;-7.920;2023-07-28T03:55:54;8.83;;;6.60;;
60873;SDS011;46715;40.642;-7.920;2023-07-28T03:57:58;11.00;;;6.47;;
60873;SDS011;46715;40.642;-7.920;2023-07-28T03:59:59;9.70;;;6.13;;
60873;SDS011;46715;40.642;-7.920;2023-07-28T04:04:01;7.28;;;5.35;;
60873;SDS011;46715;40.642;-7.920;2023-07-28T04:06:10;7.50;;;5.80;;
60873;SDS011;46715;40.642;-7.920;2023-07-28T04:08:12;7.93;;;6.22;;
60873;SDS011;46715;40.642;-7.920;2023-07-28T04:10:13;10.88;;;6.20;;
60873;SDS011;46715;40.642;-7.920;2023-07-28T04:12:14;9.07;;;5.70;;
60873;SDS011;46715;40.642;-7.920;2023-07-28T04:14:15;8.03;;;5.50;;
60873;SDS011;46715;40.642;-7.920;2023-07-28T04:16:16;8.75;;;5.47;;
60873;SDS011;46715;40.642;-7.920;2023-07-28T04:18:18;8.07;;;5.43;;
60873;SDS011;46715;40.642;-7.920;2023-07-28T04:20:19;15.17;;;6.07;;
60873;SDS011;46715;40.642;-7.920;2023-07-28T04:22:19;8.40;;;5.17;;
60873;SDS011;46715;40.642;-7.920;2023-07-28T04:24:23;8.32;;;5.90;;
60873;SDS011;46715;40.642;-7.920;2023-07-28T04:26:24;7.63;;;5.63;;
60873;SDS011;46715;40.642;-7.920;2023-07-28T04:28:32;8.75;;;5.57;;
60873;SDS011;46715;40.642;-7.920;2023-07-28T04:30:35;7.20;;;5.53;;
60873;SDS011;46715;40.642;-7.920;2023-07-28T04:32:36;9.03;;;5.30;;
60873;SDS011;46715;40.642;-7.920;2023-07-28T04:34:44;7.78;;;5.32;;
60873;SDS011;46715;40.642;-7.920;2023-07-28T04:36:50;7.95;;;5.55;;
60873;SDS011;46715;40.642;-7.920;2023-07-28T04:38:55;7.97;;;5.80;;
60873;SDS011;46715;40.642;-7.920;2023-07-28T04:40:58;13.35;;;6.43;;
60873;SDS011;46715;40.642;-7.920;2023-07-28T04:43:16;9.30;;;5.45;;
60873;SDS011;46715;40.642;-7.920;2023-07-28T04:45:23;10.93;;;5.22;;
60873;SDS011;46715;40.642;-7.920;2023-07-28T04:47:23;10.33;;;5.53;;
60873;SDS011;46715;40.642;-7.920;2023-07-28T04:49:25;8.38;;;5.18;;
60873;SDS011;46715;40.642;-7.920;2023-07-28T04:51:40;9.30;;;5.57;;
60873;SDS011;46715;40.642;-7.920;2023-07-28T04:54:10;10.82;;;6.43;;
60873;SDS011;46715;40.642;-7.920;2023-07-28T04:56:11;7.27;;;4.97;;
60873;SDS011;46715;40.642;-7.920;2023-07-28T04:58:12;8.05;;;5.13;;
60873;SDS011;46715;40.642;-7.920;2023-07-28T05:00:22;9.15;;;5.10;;
60873;SDS011;46715;40.642;-7.920;2023-07-28T05:02:23;9.85;;;5.75;;
60873;SDS011;46715;40.642;-7.920;2023-07-28T05:04:24;8.33;;;5.43;;
60873;SDS011;46715;40.642;-7.920;2023-07-28T05:06:25;10.13;;;5.70;;
60873;SDS011;46715;40.642;-7.920;2023-07-28T05:08:26;11.97;;;6.43;;
60873;SDS011;46715;40.642;-7.920;2023-07-28T05:10:27;12.15;;;6.13;;
60873;SDS011;46715;40.642;-7.920;2023-07-28T05:12:28;8.27;;;5.20;;
60873;SDS011;46715;40.642;-7.920;2023-07-28T05:14:28;8.60;;;5.87;;
60873;SDS011;46715;40.642;-7.920;2023-07-28T05:16:29;11.53;;;6.23;;
60873;SDS011;46715;40.642;-7.920;2023-07-28T05:18:45;8.65;;;6.25;;
60873;SDS011;46715;40.642;-7.920;2023-07-28T05:21:06;10.43;;;6.53;;
60873;SDS011;46715;40.642;-7.920;2023-07-28T05:23:06;11.60;;;6.70;;
60873;SDS011;46715;40.642;-7.920;2023-07-28T05:25:07;10.80;;;7.17;;
60873;SDS011;46715;40.642;-7.920;2023-07-28T05:27:11;9.20;;;6.70;;
60873;SDS011;46715;40.642;-7.920;2023-07-28T05:31:14;14.57;;;6.63;;
60873;SDS011;46715;40.642;-7.920;2023-07-28T05:33:16;10.40;;;6.40;;
60873;SDS011;46715;40.642;-7.920;2023-07-28T05:35:20;9.38;;;5.78;;
60873;SDS011;46715;40.642;-7.920;2023-07-28T05:37:21;11.23;;;7.00;;
60873;SDS011;46715;40.642;-7.920;2023-07-28T05:39:22;11.50;;;6.10;;
60873;SDS011;46715;40.642;-7.920;2023-07-28T05:41:22;9.87;;;6.53;;
60873;SDS011;46715;40.642;-7.920;2023-07-28T05:43:24;10.55;;;6.32;;
60873;SDS011;46715;40.642;-7.920;2023-07-28T05:45:28;9.38;;;5.68;;
60873;SDS011;46715;40.642;-7.920;2023-07-28T05:47:28;11.53;;;6.90;;
60873;SDS011;46715;40.642;-7.920;2023-07-28T05:49:29;12.45;;;8.00;;
60873;SDS011;46715;40.642;-7.920;2023-07-28T05:51:30;9.90;;;6.73;;
60873;SDS011;46715;40.642;-7.920;2023-07-28T05:53:31;9.80;;;7.05;;
60873;SDS011;46715;40.642;-7.920;2023-07-28T05:55:37;9.43;;;6.28;;
60873;SDS011;46715;40.642;-7.920;2023-07-28T05:57:40;10.80;;;6.80;;
60873;SDS011;46715;40.642;-7.920;2023-07-28T05:59:42;10.23;;;6.88;;
60873;SDS011;46715;40.642;-7.920;2023-07-28T06:01:43;11.13;;;6.83;;
60873;SDS011;46715;40.642;-7.920;2023-07-28T06:03:53;12.07;;;6.78;;
60873;SDS011;46715;40.642;-7.920;2023-07-28T06:05:59;11.90;;;7.18;;
60873;SDS011;46715;40.642;-7.920;2023-07-28T06:08:00;8.70;;;6.47;;
60873;SDS011;46715;40.642;-7.920;2023-07-28T06:10:01;9.83;;;6.87;;
60873;SDS011;46715;40.642;-7.920;2023-07-28T06:12:02;11.20;;;7.93;;
60873;SDS011;46715;40.642;-7.920;2023-07-28T06:14:02;10.20;;;7.30;;
60873;SDS011;46715;40.642;-7.920;2023-07-28T06:16:09;14.65;;;7.32;;
60873;SDS011;46715;40.642;-7.920;2023-07-28T06:18:10;10.83;;;7.47;;
60873;SDS011;46715;40.642;-7.920;2023-07-28T06:20:11;13.90;;;7.50;;
60873;SDS011;46715;40.642;-7.920;2023-07-28T06:22:12;11.83;;;7.57;;
60873;SDS011;46715;40.642;-7.920;2023-07-28T06:24:18;9.60;;;6.45;;
60873;SDS011;46715;40.642;-7.920;2023-07-28T06:26:19;10.60;;;6.78;;
60873;SDS011;46715;40.642;-7.920;2023-07-28T06:28:20;10.40;;;6.43;;
60873;SDS011;46715;40.642;-7.920;2023-07-28T06:30:20;14.10;;;8.10;;
60873;SDS011;46715;40.642;-7.920;2023-07-28T06:32:21;14.43;;;7.83;;
60873;SDS011;46715;40.642;-7.920;2023-07-28T06:34:23;10.07;;;7.53;;
60873;SDS011;46715;40.642;-7.920;2023-07-28T06:36:24;11.60;;;8.20;;
60873;SDS011;46715;40.642;-7.920;2023-07-28T06:38:25;10.87;;;7.40;;
60873;SDS011;46715;40.642;-7.920;2023-07-28T06:40:26;11.43;;;6.70;;
60873;SDS011;46715;40.642;-7.920;2023-07-28T06:42:26;11.30;;;6.80;;
60873;SDS011;46715;40.642;-7.920;2023-07-28T06:44:30;9.93;;;6.32;;
60873;SDS011;46715;40.642;-7.920;2023-07-28T06:46:31;9.10;;;6.53;;
60873;SDS011;46715;40.642;-7.920;2023-07-28T06:48:33;10.13;;;6.55;;
60873;SDS011;46715;40.642;-7.920;2023-07-28T06:50:34;9.87;;;6.47;;
60873;SDS011;46715;40.642;-7.920;2023-07-28T06:52:35;9.57;;;6.70;;
60873;SDS011;46715;40.642;-7.920;2023-07-28T06:54:36;8.93;;;6.13;;
60873;SDS011;46715;40.642;-7.920;2023-07-28T06:56:37;8.30;;;6.57;;
60873;SDS011;46715;40.642;-7.920;2023-07-28T06:58:37;7.83;;;5.87;;
60873;SDS011;46715;40.642;-7.920;2023-07-28T07:00:38;7.37;;;6.03;;
60873;SDS011;46715;40.642;-7.920;2023-07-28T07:04:41;10.02;;;5.75;;
60873;SDS011;46715;40.642;-7.920;2023-07-28T07:06:42;7.93;;;6.38;;
60873;SDS011;46715;40.642;-7.920;2023-07-28T07:08:42;9.18;;;6.28;;
60873;SDS011;46715;40.642;-7.920;2023-07-28T07:10:47;12.52;;;6.20;;
60873;SDS011;46715;40.642;-7.920;2023-07-28T07:12:51;7.50;;;5.85;;
60873;SDS011;46715;40.642;-7.920;2023-07-28T07:14:51;9.73;;;6.03;;
60873;SDS011;46715;40.642;-7.920;2023-07-28T07:16:56;8.60;;;5.88;;
60873;SDS011;46715;40.642;-7.920;2023-07-28T07:18:57;7.27;;;5.27;;
60873;SDS011;46715;40.642;-7.920;2023-07-28T07:21:01;8.32;;;5.68;;
60873;SDS011;46715;40.642;-7.920;2023-07-28T07:23:06;6.18;;;4.47;;
60873;SDS011;46715;40.642;-7.920;2023-07-28T07:25:07;6.95;;;4.28;;
60873;SDS011;46715;40.642;-7.920;2023-07-28T07:29:11;8.15;;;4.15;;
60873;SDS011;46715;40.642;-7.920;2023-07-28T07:31:14;8.73;;;3.83;;
60873;SDS011;46715;40.642;-7.920;2023-07-28T07:33:15;6.22;;;3.35;;
60873;SDS011;46715;40.642;-7.920;2023-07-28T07:35:16;11.63;;;4.75;;
60873;SDS011;46715;40.642;-7.920;2023-07-28T07:37:17;6.55;;;3.45;;
60873;SDS011;46715;40.642;-7.920;2023-07-28T07:41:18;9.57;;;4.03;;
60873;SDS011;46715;40.642;-7.920;2023-07-28T07:43:22;6.40;;;3.53;;
60873;SDS011;46715;40.642;-7.920;2023-07-28T07:45:22;9.57;;;3.33;;
60873;SDS011;46715;40.642;-7.920;2023-07-28T07:47:23;6.80;;;3.78;;
60873;SDS011;46715;40.642;-7.920;2023-07-28T07:49:24;6.25;;;3.47;;
60873;SDS011;46715;40.642;-7.920;2023-07-28T07:51:24;8.43;;;3.50;;
60873;SDS011;46715;40.642;-7.920;2023-07-28T07:53:25;5.40;;;3.70;;
60873;SDS011;46715;40.642;-7.920;2023-07-28T07:57:26;4.33;;;3.17;;
60873;SDS011;46715;40.642;-7.920;2023-07-28T07:59:27;8.00;;;3.80;;
60873;SDS011;46715;40.642;-7.920;2023-07-28T08:01:31;5.63;;;3.58;;
60873;SDS011;46715;40.642;-7.920;2023-07-28T08:05:32;7.18;;;4.10;;
60873;SDS011;46715;40.642;-7.920;2023-07-28T08:07:34;7.35;;;3.70;;
60873;SDS011;46715;40.642;-7.920;2023-07-28T08:09:35;6.63;;;3.25;;
60873;SDS011;46715;40.642;-7.920;2023-07-28T08:11:37;6.53;;;3.58;;
60873;SDS011;46715;40.642;-7.920;2023-07-28T08:15:38;6.27;;;3.23;;
60873;SDS011;46715;40.642;-7.920;2023-07-28T08:17:39;4.03;;;3.20;;
60873;SDS011;46715;40.642;-7.920;2023-07-28T08:21:41;5.20;;;3.42;;
60873;SDS011;46715;40.642;-7.920;2023-07-28T08:23:41;9.23;;;3.50;;
60873;SDS011;46715;40.642;-7.920;2023-07-28T08:25:42;5.80;;;3.30;;
60873;SDS011;46715;40.642;-7.920;2023-07-28T08:27:43;4.72;;;3.08;;
60873;SDS011;46715;40.642;-7.920;2023-07-28T08:29:44;6.75;;;3.33;;
60873;SDS011;46715;40.642;-7.920;2023-07-28T08:31:44;4.15;;;3.30;;
60873;SDS011;46715;40.642;-7.920;2023-07-28T08:35:45;6.73;;;3.20;;
60873;SDS011;46715;40.642;-7.920;2023-07-28T08:37:47;7.43;;;3.08;;
60873;SDS011;46715;40.642;-7.920;2023-07-28T08:39:49;5.70;;;3.40;;
60873;SDS011;46715;40.642;-7.920;2023-07-28T08:43:57;5.25;;;3.15;;
60873;SDS011;46715;40.642;-7.920;2023-07-28T08:47:58;7.20;;;3.20;;
60873;SDS011;46715;40.642;-7.920;2023-07-28T08:50:00;4.40;;;2.55;;
60873;SDS011;46715;40.642;-7.920;2023-07-28T08:52:02;6.57;;;3.15;;
60873;SDS011;46715;40.642;-7.920;2023-07-28T08:54:03;6.03;;;3.00;;
60873;SDS011;46715;40.642;-7.920;2023-07-28T08:56:05;6.30;;;3.03;;
60873;SDS011;46715;40.642;-7.920;2023-07-28T08:58:20;6.22;;;2.72;;
60873;SDS011;46715;40.642;-7.920;2023-07-28T09:00:22;5.80;;;2.95;;
60873;SDS011;46715;40.642;-7.920;2023-07-28T09:02:25;8.10;;;3.03;;
60873;SDS011;46715;40.642;-7.920;2023-07-28T09:04:25;4.05;;;2.70;;
60873;SDS011;46715;40.642;-7.920;2023-07-28T09:06:29;6.22;;;3.50;;
60873;SDS011;46715;40.642;-7.920;2023-07-28T09:08:32;5.70;;;3.35;;
60873;SDS011;46715;40.642;-7.920;2023-07-28T09:10:46;7.75;;;3.28;;
60873;SDS011;46715;40.642;-7.920;2023-07-28T09:12:52;4.65;;;2.72;;
60873;SDS011;46715;40.642;-7.920;2023-07-28T09:14:57;6.50;;;2.90;;
60873;SDS011;46715;40.642;-7.920;2023-07-28T09:17:07;4.93;;;2.85;;
60873;SDS011;46715;40.642;-7.920;2023-07-28T09:19:13;6.03;;;2.60;;
60873;SDS011;46715;40.642;-7.920;2023-07-28T09:21:17;5.82;;;3.13;;
60873;SDS011;46715;40.642;-7.920;2023-07-28T09:23:29;4.70;;;2.90;;
60873;SDS011;46715;40.642;-7.920;2023-07-28T09:25:31;6.97;;;2.80;;
60873;SDS011;46715;40.642;-7.920;2023-07-28T09:27:33;7.32;;;2.67;;
60873;SDS011;46715;40.642;-7.920;2023-07-28T09:29:33;6.50;;;3.25;;
60873;SDS011;46715;40.642;-7.920;2023-07-28T09:31:35;5.40;;;2.67;;
60873;SDS011;46715;40.642;-7.920;2023-07-28T09:33:36;6.38;;;3.00;;
60873;SDS011;46715;40.642;-7.920;2023-07-28T09:35:48;5.40;;;3.20;;
60873;SDS011;46715;40.642;-7.920;2023-07-28T09:37:50;4.82;;;2.92;;
60873;SDS011;46715;40.642;-7.920;2023-07-28T09:39:53;5.15;;;2.85;;
60873;SDS011;46715;40.642;-7.920;2023-07-28T09:41:54;4.93;;;2.60;;
60873;SDS011;46715;40.642;-7.920;2023-07-28T09:44:00;5.07;;;2.70;;
60873;SDS011;46715;40.642;-7.920;2023-07-28T09:46:03;6.30;;;2.67;;
60873;SDS011;46715;40.642;-7.920;2023-07-28T09:48:09;5.53;;;2.75;;
60873;SDS011;46715;40.642;-7.920;2023-07-28T09:50:14;5.68;;;2.45;;
60873;SDS011;46715;40.642;-7.920;2023-07-28T09:52:16;3.65;;;2.42;;
60873;SDS011;46715;40.642;-7.920;2023-07-28T09:54:20;5.38;;;2.80;;
60873;SDS011;46715;40.642;-7.920;2023-07-28T09:56:29;6.28;;;2.63;;
60873;SDS011;46715;40.642;-7.920;2023-07-28T09:58:30;4.45;;;2.80;;
60873;SDS011;46715;40.642;-7.920;2023-07-28T10:00:38;5.60;;;2.55;;
60873;SDS011;46715;40.642;-7.920;2023-07-28T10:02:39;8.18;;;2.63;;
60873;SDS011;46715;40.642;-7.920;2023-07-28T10:04:40;4.05;;;2.38;;
60873;SDS011;46715;40.642;-7.920;2023-07-28T10:06:43;3.88;;;2.13;;
60873;SDS011;46715;40.642;-7.920;2023-07-28T10:08:44;6.30;;;3.50;;
60873;SDS011;46715;40.642;-7.920;2023-07-28T10:10:46;4.90;;;2.63;;
60873;SDS011;46715;40.642;-7.920;2023-07-28T10:12:48;6.38;;;2.90;;
60873;SDS011;46715;40.642;-7.920;2023-07-28T10:15:01;4.93;;;2.78;;
60873;SDS011;46715;40.642;-7.920;2023-07-28T10:17:04;6.15;;;3.17;;
60873;SDS011;46715;40.642;-7.920;2023-07-28T10:19:06;3.78;;;2.72;;
60873;SDS011;46715;40.642;-7.920;2023-07-28T10:21:08;3.55;;;2.30;;
60873;SDS011;46715;40.642;-7.920;2023-07-28T10:23:14;4.60;;;2.97;;
60873;SDS011;46715;40.642;-7.920;2023-07-28T10:25:22;5.18;;;2.80;;
60873;SDS011;46715;40.642;-7.920;2023-07-28T10:27:29;4.75;;;2.63;;
60873;SDS011;46715;40.642;-7.920;2023-07-28T10:29:31;4.80;;;2.75;;
60873;SDS011;46715;40.642;-7.920;2023-07-28T10:31:51;4.93;;;2.20;;
60873;SDS011;46715;40.642;-7.920;2023-07-28T10:33:53;5.20;;;2.80;;
60873;SDS011;46715;40.642;-7.920;2023-07-28T10:37:54;7.88;;;3.05;;
60873;SDS011;46715;40.642;-7.920;2023-07-28T10:42:27;8.50;;;2.88;;
60873;SDS011;46715;40.642;-7.920;2023-07-28T10:46:28;3.83;;;2.50;;
60873;SDS011;46715;40.642;-7.920;2023-07-28T10:48:29;4.35;;;2.60;;
60873;SDS011;46715;40.642;-7.920;2023-07-28T10:52:31;4.72;;;2.75;;
60873;SDS011;46715;40.642;-7.920;2023-07-28T10:54:32;4.75;;;2.60;;
60873;SDS011;46715;40.642;-7.920;2023-07-28T10:56:34;4.50;;;2.45;;
60873;SDS011;46715;40.642;-7.920;2023-07-28T10:58:34;3.88;;;2.47;;
60873;SDS011;46715;40.642;-7.920;2023-07-28T11:00:36;4.53;;;2.55;;
60873;SDS011;46715;40.642;-7.920;2023-07-28T11:02:47;3.85;;;2.60;;
60873;SDS011;46715;40.642;-7.920;2023-07-28T11:04:49;3.92;;;2.42;;
60873;SDS011;46715;40.642;-7.920;2023-07-28T11:06:50;3.50;;;2.42;;
60873;SDS011;46715;40.642;-7.920;2023-07-28T11:08:51;3.53;;;2.42;;
60873;SDS011;46715;40.642;-7.920;2023-07-28T11:10:52;5.10;;;2.33;;
60873;SDS011;46715;40.642;-7.920;2023-07-28T11:12:53;3.80;;;2.38;;
60873;SDS011;46715;40.642;-7.920;2023-07-28T11:14:53;3.97;;;2.13;;
60873;SDS011;46715;40.642;-7.920;2023-07-28T11:16:54;3.15;;;2.03;;
60873;SDS011;46715;40.642;-7.920;2023-07-28T11:18:55;5.15;;;2.38;;
60873;SDS011;46715;40.642;-7.920;2023-07-28T11:20:57;3.53;;;2.28;;
60873;SDS011;46715;40.642;-7.920;2023-07-28T11:24:59;5.20;;;2.55;;
60873;SDS011;46715;40.642;-7.920;2023-07-28T11:29:02;2.50;;;2.17;;
60873;SDS011;46715;40.642;-7.920;2023-07-28T11:31:05;3.40;;;2.25;;
60873;SDS011;46715;40.642;-7.920;2023-07-28T11:33:08;2.97;;;2.38;;
60873;SDS011;46715;40.642;-7.920;2023-07-28T11:35:11;3.28;;;2.55;;
60873;SDS011;46715;40.642;-7.920;2023-07-28T11:37:13;4.03;;;2.38;;
60873;SDS011;46715;40.642;-7.920;2023-07-28T11:39:14;3.40;;;2.10;;
60873;SDS011;46715;40.642;-7.920;2023-07-28T11:41:16;4.47;;;2.45;;
60873;SDS011;46715;40.642;-7.920;2023-07-28T11:43:18;3.20;;;2.25;;
60873;SDS011;46715;40.642;-7.920;2023-07-28T11:45:19;3.83;;;2.50;;
60873;SDS011;46715;40.642;-7.920;2023-07-28T11:47:22;4.88;;;2.80;;
60873;SDS011;46715;40.642;-7.920;2023-07-28T11:49:23;4.45;;;2.55;;
60873;SDS011;46715;40.642;-7.920;2023-07-28T11:51:27;4.90;;;2.78;;
60873;SDS011;46715;40.642;-7.920;2023-07-28T11:53:28;5.43;;;2.40;;
60873;SDS011;46715;40.642;-7.920;2023-07-28T11:55:34;4.15;;;2.70;;
60873;SDS011;46715;40.642;-7.920;2023-07-28T11:57:36;6.82;;;2.53;;
60873;SDS011;46715;40.642;-7.920;2023-07-28T11:59:37;3.67;;;2.40;;
60873;SDS011;46715;40.642;-7.920;2023-07-28T12:03:58;3.60;;;2.65;;
60873;SDS011;46715;40.642;-7.920;2023-07-28T12:06:06;4.57;;;2.38;;
60873;SDS011;46715;40.642;-7.920;2023-07-28T12:08:10;4.57;;;2.42;;
60873;SDS011;46715;40.642;-7.920;2023-07-28T12:12:12;2.67;;;1.75;;
60873;SDS011;46715;40.642;-7.920;2023-07-28T12:14:13;2.72;;;1.88;;
60873;SDS011;46715;40.642;-7.920;2023-07-28T12:18:38;2.40;;;1.60;;
60873;SDS011;46715;40.642;-7.920;2023-07-28T12:22:43;4.17;;;2.20;;
60873;SDS011;46715;40.642;-7.920;2023-07-28T12:24:45;3.92;;;1.80;;
60873;SDS011;46715;40.642;-7.920;2023-07-28T12:26:46;2.45;;;1.67;;
60873;SDS011;46715;40.642;-7.920;2023-07-28T12:28:48;3.33;;;1.90;;
60873;SDS011;46715;40.642;-7.920;2023-07-28T12:30:49;3.13;;;1.98;;
60873;SDS011;46715;40.642;-7.920;2023-07-28T12:32:51;3.47;;;1.80;;
60873;SDS011;46715;40.642;-7.920;2023-07-28T12:34:52;3.17;;;2.10;;
60873;SDS011;46715;40.642;-7.920;2023-07-28T12:38:53;5.13;;;2.37;;
60873;SDS011;46715;40.642;-7.920;2023-07-28T12:40:54;5.32;;;2.40;;
60873;SDS011;46715;40.642;-7.920;2023-07-28T12:44:56;4.95;;;2.40;;
60873;SDS011;46715;40.642;-7.920;2023-07-28T12:48:58;3.87;;;2.20;;
60873;SDS011;46715;40.642;-7.920;2023-07-28T12:50:59;3.45;;;2.35;;
60873;SDS011;46715;40.642;-7.920;2023-07-28T12:53:00;3.38;;;2.42;;
60873;SDS011;46715;40.642;-7.920;2023-07-28T12:55:01;3.90;;;2.20;;
60873;SDS011;46715;40.642;-7.920;2023-07-28T12:57:02;3.78;;;2.30;;
60873;SDS011;46715;40.642;-7.920;2023-07-28T12:59:03;6.32;;;2.63;;
60873;SDS011;46715;40.642;-7.920;2023-07-28T13:01:04;4.15;;;2.70;;